Terminal Aerodrome Forecast
Issued by NWS

Current Version | Previous Version | Text Only | Print | Product List | Glossary On
Versions: 1 2 3 4 5 6 7 8 9 10 11 12 13 14 15 16 17 18 19 20 21 22 23 24 25 26 27 28 29 30 31 32
000
FTUS44 KHGX 211421 AAB
TAFSGR
TAF AMD
KSGR 211421Z 2114/2212 28004KT P6SM SCT014
      TEMPO 2114/2115 5SM BR OVC003
     FM211600 31008KT P6SM FEW020 SCT120
     FM212000 32012G21KT P6SM FEW250
     FM220100 31007KT P6SM SKC=

USA.gov is the U.S. government's official web portal to all federal, state and local government web resources and services.